KAXX

Angel Fire Airport

Angel Fire, New Mexico, USA
METAR KAXX 092235Z AUTO 27010KT 10SM CLR 01/M08 A3031 RMK AO2 T00051081
Observed Flight Rules
Dec-9 @ 22:35 UTC (19 minutes ago) Visual Flight Rules
Wind Visibility Clouds
270° at 10 knots 10 miles
  • Clear skies
Temperatures Readings
Current 1°C / 34°F
Dewpoint -8°C / 18°F
Humidity 51%
Altimeter 30.31" Hg
Pressure 1026 hPa
Elevation 2548
METAR KAXX 092235Z AUTO 27010KT 10SM CLR 01/M08 A3031 RMK AO2 T00051081
Observed Flight Rules
Dec-9 @ 22:35 UTC
(19 minutes ago)
VFR
Wind Visibility
270° at 10 knots 10 miles
Clouds
  • Clear skies
Temperature Dewpoint
1°C / 34°F -8°C / 18°F
Humidity Altimeter Pressure
51% 30.31" Hg 1026 hPa